createdAt,value
2018-05-23T00:02:02.253Z,5.87
2018-05-23T00:04:29.967Z,6.17
2018-05-23T00:06:56.753Z,5.20
2018-05-23T00:09:23.661Z,5.23
2018-05-23T00:11:52.239Z,5.40
2018-05-23T00:14:19.026Z,4.93
2018-05-23T00:16:46.035Z,5.37
2018-05-23T00:19:12.686Z,5.47
2018-05-23T00:21:39.366Z,5.20
2018-05-23T00:24:06.014Z,4.83
2018-05-23T00:26:32.593Z,5.53
2018-05-23T00:28:59.443Z,5.93
2018-05-23T00:31:26.400Z,5.50
2018-05-23T00:33:57.880Z,5.77
2018-05-23T00:36:24.462Z,5.20
2018-05-23T00:38:51.090Z,5.10
2018-05-23T00:41:18.730Z,5.00
2018-05-23T00:43:46.630Z,5.50
2018-05-23T00:46:13.246Z,6.63
2018-05-23T00:48:40.714Z,5.30
2018-05-23T00:51:07.308Z,5.30
2018-05-23T00:53:34.276Z,5.87
2018-05-23T00:56:01.230Z,4.93
2018-05-23T00:58:27.819Z,5.20
2018-05-23T01:00:54.470Z,5.63
2018-05-23T01:03:21.273Z,5.77
2018-05-23T01:05:47.893Z,5.83
2018-05-23T01:08:14.635Z,6.10
2018-05-23T01:10:41.326Z,5.60
2018-05-23T01:13:08.264Z,4.87
2018-05-23T01:15:35.554Z,5.83
2018-05-23T01:18:02.286Z,5.33
2018-05-23T01:20:28.886Z,5.40
2018-05-23T01:23:00.189Z,5.00
2018-05-23T01:25:26.886Z,5.57
2018-05-23T01:27:53.533Z,5.90
2018-05-23T01:30:20.100Z,6.07
2018-05-23T01:32:53.794Z,5.30
2018-05-23T01:35:21.015Z,5.50
2018-05-23T01:37:47.645Z,4.80
2018-05-23T01:40:14.394Z,5.53
2018-05-23T01:42:51.750Z,5.50
2018-05-23T01:45:18.315Z,5.17
2018-05-23T01:47:44.956Z,5.27
2018-05-23T01:50:11.569Z,5.87
2018-05-23T01:52:48.362Z,5.47
2018-05-23T01:55:15.024Z,5.07
2018-05-23T01:57:41.584Z,5.50
2018-05-23T02:00:08.441Z,5.40
2018-05-23T02:02:38.709Z,5.13
2018-05-23T02:05:05.363Z,5.57
2018-05-23T02:07:31.975Z,5.67
2018-05-23T02:09:58.883Z,6.10
2018-05-23T02:12:26.742Z,6.10
2018-05-23T02:14:53.443Z,7.87
2018-05-23T02:17:20.101Z,5.80
2018-05-23T02:19:46.701Z,5.63
2018-05-23T02:22:21.371Z,5.97
2018-05-23T02:24:48.064Z,5.83
2018-05-23T02:27:14.713Z,5.50
2018-05-23T02:29:41.423Z,4.73
2018-05-23T02:32:13.278Z,5.00
2018-05-23T02:34:39.927Z,5.53
2018-05-23T02:37:06.794Z,5.00
2018-05-23T02:39:33.410Z,5.03
2018-05-23T02:41:59.909Z,4.97
2018-05-23T02:44:26.989Z,5.40
2018-05-23T02:46:53.635Z,4.93
2018-05-23T02:49:20.289Z,5.10
2018-05-23T02:51:46.948Z,5.23
2018-05-23T02:54:14.750Z,5.13
2018-05-23T02:56:41.466Z,4.90
2018-05-23T02:59:08.053Z,5.13
2018-05-23T03:01:34.758Z,5.40
2018-05-23T03:04:02.541Z,5.43
2018-05-23T03:06:29.187Z,5.53
2018-05-23T03:08:55.823Z,5.90
2018-05-23T03:11:22.366Z,5.77
2018-05-23T03:13:59.509Z,5.87
2018-05-23T03:16:26.042Z,5.00
2018-05-23T03:18:52.756Z,4.50
2018-05-23T03:21:19.438Z,4.20
2018-05-23T03:23:51.681Z,4.60
2018-05-23T03:26:18.331Z,4.30
2018-05-23T03:28:45.013Z,4.50
2018-05-23T03:31:11.621Z,4.50
2018-05-23T03:33:42.288Z,5.10
2018-05-23T03:36:08.951Z,4.83
2018-05-23T03:38:35.425Z,4.53
2018-05-23T03:41:02.026Z,4.77
2018-05-23T03:43:33.608Z,5.30
2018-05-23T03:46:00.328Z,5.67
2018-05-23T03:48:27.085Z,5.93
2018-05-23T03:50:53.616Z,6.43
2018-05-23T03:53:44.285Z,6.97
2018-05-23T03:56:11.242Z,6.90
2018-05-23T03:58:37.897Z,6.93
2018-05-23T04:01:16.420Z,6.83
2018-05-23T04:03:58.601Z,7.10
2018-05-23T04:06:33.812Z,6.13
2018-05-23T04:09:00.486Z,4.70
2018-05-23T04:11:27.052Z,4.27
2018-05-23T04:14:03.704Z,4.10
2018-05-23T04:16:30.313Z,4.80
2018-05-23T04:18:56.974Z,5.20
2018-05-23T04:21:23.421Z,4.53
2018-05-23T04:23:57.010Z,4.40
2018-05-23T04:26:23.673Z,4.23
2018-05-23T04:28:50.392Z,4.93
2018-05-23T04:31:16.999Z,5.60
2018-05-23T04:33:54.693Z,6.27
2018-05-23T04:36:21.466Z,6.80
2018-05-23T04:38:48.122Z,7.00
2018-05-23T04:41:14.733Z,7.47
2018-05-23T04:43:45.836Z,7.50
2018-05-23T04:46:12.513Z,7.60
2018-05-23T04:48:39.283Z,8.00
2018-05-23T04:51:06.004Z,7.97
2018-05-23T04:53:36.979Z,8.40
2018-05-23T04:56:03.530Z,8.07
2018-05-23T04:58:30.097Z,7.53
2018-05-23T05:00:57.054Z,8.40
2018-05-23T05:03:29.814Z,8.67
2018-05-23T05:05:56.705Z,7.73
2018-05-23T05:11:16.653Z,7.00
2018-05-23T05:13:47.089Z,6.67
2018-05-23T05:16:13.608Z,6.00
2018-05-23T05:18:40.145Z,6.57
2018-05-23T05:21:06.796Z,5.57
2018-05-23T05:23:37.448Z,6.10
2018-05-23T05:26:04.391Z,6.80
2018-05-23T05:28:31.073Z,3.70
2018-05-23T05:30:57.829Z,3.83
2018-05-23T05:33:25.518Z,3.70
2018-05-23T05:35:52.261Z,2.93
2018-05-23T05:38:18.955Z,3.50
2018-05-23T05:40:45.704Z,3.03
2018-05-23T05:43:13.481Z,2.77
2018-05-23T05:45:40.975Z,3.00
2018-05-23T05:48:07.644Z,2.87
2018-05-23T05:50:34.189Z,3.13
2018-05-23T05:53:05.873Z,3.50
2018-05-23T05:55:32.613Z,3.33
2018-05-23T05:57:59.621Z,3.00
2018-05-23T06:00:26.268Z,2.90
2018-05-23T06:03:03.685Z,3.23
2018-05-23T06:05:30.224Z,2.63
2018-05-23T06:07:56.697Z,2.90
2018-05-23T06:10:23.394Z,2.93
2018-05-23T06:12:55.621Z,2.77
2018-05-23T06:15:22.443Z,2.77
2018-05-23T06:17:49.270Z,2.57
2018-05-23T06:20:15.916Z,2.33
2018-05-23T06:22:43.737Z,3.97
2018-05-23T06:25:10.243Z,4.93
2018-05-23T06:27:36.977Z,3.33
2018-05-23T06:30:03.546Z,3.90
2018-05-23T06:32:30.758Z,4.97
2018-05-23T06:34:57.641Z,4.50
2018-05-23T06:37:24.224Z,4.57
2018-05-23T06:39:50.939Z,4.60
2018-05-23T06:42:17.853Z,5.37
2018-05-23T06:44:44.521Z,2.47
2018-05-23T06:47:11.525Z,2.40
2018-05-23T06:49:38.189Z,2.30
2018-05-23T06:52:08.198Z,2.93
2018-05-23T06:54:34.995Z,2.70
2018-05-23T06:57:02.795Z,2.33
2018-05-23T06:59:29.652Z,2.30
2018-05-23T07:01:59.781Z,2.53
2018-05-23T07:04:26.365Z,2.47
2018-05-23T07:06:52.908Z,2.40
2018-05-23T07:09:19.573Z,2.70
2018-05-23T07:11:50.485Z,2.67
2018-05-23T07:14:17.135Z,4.90
2018-05-23T07:16:43.764Z,6.87
2018-05-23T07:19:10.252Z,8.60
2018-05-23T07:21:36.901Z,10.13
2018-05-23T07:24:03.749Z,9.43
2018-05-23T07:26:30.342Z,9.53
2018-05-23T07:28:57.941Z,8.87
2018-05-23T07:31:28.903Z,8.23
2018-05-23T07:33:55.615Z,6.97
2018-05-23T07:36:22.325Z,6.83
2018-05-23T07:38:48.989Z,7.07
2018-05-23T07:41:15.672Z,6.43
2018-05-23T07:43:42.563Z,2.50
2018-05-23T07:46:09.188Z,2.37
2018-05-23T07:48:35.818Z,2.40
2018-05-23T07:51:02.631Z,2.07
2018-05-23T07:53:30.526Z,3.97
2018-05-23T07:55:57.085Z,4.93
2018-05-23T07:58:23.730Z,5.53
2018-05-23T08:00:50.314Z,5.80
2018-05-23T08:03:20.105Z,5.00
2018-05-23T08:05:46.756Z,5.87
2018-05-23T08:08:13.595Z,5.00
2018-05-23T08:10:40.723Z,4.33
2018-05-23T08:13:08.702Z,4.50
2018-05-23T08:15:35.643Z,4.50
2018-05-23T08:18:02.264Z,3.90
2018-05-23T08:20:29.009Z,3.97
2018-05-23T08:23:06.140Z,3.43
2018-05-23T08:25:33.153Z,3.60
2018-05-23T08:27:59.785Z,3.73
2018-05-23T08:30:26.366Z,3.70
2018-05-23T08:32:53.168Z,3.40
2018-05-23T08:35:19.838Z,3.30
2018-05-23T08:37:46.338Z,3.70
2018-05-23T08:40:13.317Z,3.43
2018-05-23T08:42:45.193Z,2.97
2018-05-23T08:45:11.920Z,3.00
2018-05-23T08:47:38.679Z,3.03
2018-05-23T08:50:05.349Z,2.90
2018-05-23T08:52:33.132Z,3.20
2018-05-23T08:54:59.765Z,2.90
2018-05-23T08:57:26.371Z,2.60
2018-05-23T08:59:52.857Z,2.80
2018-05-23T09:02:19.894Z,3.30
2018-05-23T09:04:46.525Z,2.60
2018-05-23T09:07:13.218Z,2.80
2018-05-23T09:09:39.713Z,3.03
2018-05-23T09:12:07.672Z,2.77
2018-05-23T09:14:34.450Z,2.70
2018-05-23T09:17:01.098Z,2.77
2018-05-23T09:19:27.848Z,2.83
2018-05-23T09:21:55.750Z,2.83
2018-05-23T09:24:22.706Z,2.33
2018-05-23T09:26:52.565Z,2.67
2018-05-23T09:29:19.617Z,2.87
2018-05-23T09:31:46.525Z,2.93
2018-05-23T09:34:13.514Z,2.37
2018-05-23T09:36:40.236Z,2.13
2018-05-23T09:39:07.497Z,2.30
2018-05-23T09:41:34.609Z,2.90
2018-05-23T09:44:01.710Z,2.80
2018-05-23T09:46:28.245Z,2.23
2018-05-23T09:48:54.816Z,2.10
2018-05-23T09:51:26.174Z,2.20
2018-05-23T09:53:52.961Z,2.67
2018-05-23T09:56:19.683Z,2.37
2018-05-23T09:58:46.560Z,3.30
2018-05-23T10:01:20.840Z,2.30
2018-05-23T10:03:47.598Z,2.23
2018-05-23T10:06:14.376Z,2.10
2018-05-23T10:08:41.010Z,1.92
2018-05-23T10:11:21.919Z,2.25
2018-05-23T10:13:48.709Z,2.17
2018-05-23T10:16:15.441Z,2.10
2018-05-23T10:18:42.094Z,1.98
2018-05-23T10:21:12.639Z,2.03
2018-05-23T10:23:39.565Z,2.50
2018-05-23T10:26:06.194Z,2.40
2018-05-23T10:28:32.903Z,1.98
2018-05-23T10:31:03.605Z,1.77
2018-05-23T10:33:30.406Z,1.60
2018-05-23T10:35:57.082Z,2.37
2018-05-23T10:38:24.313Z,2.20
2018-05-23T10:40:51.175Z,2.05
2018-05-23T10:43:17.981Z,1.90
2018-05-23T10:45:45.247Z,2.08
2018-05-23T10:48:12.093Z,1.87
2018-05-23T10:50:38.751Z,2.15
2018-05-23T10:53:15.710Z,2.28
2018-05-23T10:55:42.649Z,2.35
2018-05-23T10:58:09.363Z,1.83
2018-05-23T11:00:36.080Z,2.08
2018-05-23T11:03:06.689Z,2.20
2018-05-23T11:05:33.343Z,2.17
2018-05-23T11:07:59.962Z,2.15
2018-05-23T11:10:27.099Z,2.22
2018-05-23T11:13:00.294Z,1.80
2018-05-23T11:15:26.858Z,2.10
2018-05-23T11:17:53.372Z,1.98
2018-05-23T11:20:20.038Z,2.25
2018-05-23T11:22:50.720Z,2.03
2018-05-23T11:25:17.346Z,2.10
2018-05-23T11:27:44.262Z,2.10
2018-05-23T11:30:10.838Z,2.33
2018-05-23T11:32:38.571Z,2.15
2018-05-23T11:35:05.153Z,1.98
2018-05-23T11:37:32.001Z,1.90
2018-05-23T11:39:58.907Z,2.15
2018-05-23T11:42:30.246Z,2.10
2018-05-23T11:44:56.879Z,2.90
2018-05-23T11:47:23.878Z,2.70
2018-05-23T11:49:51.018Z,3.10
2018-05-23T11:52:21.557Z,2.40
2018-05-23T11:54:48.798Z,2.42
2018-05-23T11:57:15.460Z,2.92
2018-05-23T11:59:42.107Z,3.72
2018-05-23T12:02:13.110Z,3.60
2018-05-23T12:04:39.704Z,3.42
2018-05-23T12:07:06.788Z,3.05
2018-05-23T12:09:33.433Z,3.10
2018-05-23T12:12:07.347Z,2.67
2018-05-23T12:14:34.052Z,2.83
2018-05-23T12:17:00.768Z,2.90
2018-05-23T12:19:27.482Z,3.00
2018-05-23T12:21:54.365Z,3.30
2018-05-23T12:24:21.376Z,3.17
2018-05-23T12:26:48.106Z,2.70
2018-05-23T12:29:15.006Z,2.37
2018-05-23T12:31:42.705Z,2.40
2018-05-23T12:34:09.405Z,2.35
2018-05-23T12:36:36.199Z,2.20
2018-05-23T12:39:02.906Z,2.30
2018-05-23T12:41:30.762Z,2.30
2018-05-23T12:43:57.489Z,2.17
2018-05-23T12:46:24.188Z,2.53
2018-05-23T12:48:50.833Z,2.50
2018-05-23T12:51:17.453Z,2.60
2018-05-23T12:53:44.073Z,2.83
2018-05-23T12:56:10.715Z,3.45
2018-05-23T12:58:37.276Z,2.70
2018-05-23T13:01:04.892Z,3.00
2018-05-23T13:03:31.569Z,2.75
2018-05-23T13:05:58.157Z,2.72
2018-05-23T13:08:24.688Z,2.60
2018-05-23T13:10:56.332Z,2.75
2018-05-23T13:13:22.942Z,2.85
2018-05-23T13:15:49.615Z,2.85
2018-05-23T13:18:16.277Z,3.37
2018-05-23T13:20:44.151Z,3.20
2018-05-23T13:23:10.868Z,3.33
2018-05-23T13:25:37.506Z,3.00
2018-05-23T13:28:04.018Z,2.60
2018-05-23T13:30:33.822Z,2.40
2018-05-23T13:33:00.392Z,2.60
2018-05-23T13:35:27.369Z,2.70
2018-05-23T13:37:54.189Z,3.22
2018-05-23T13:40:20.860Z,2.95
2018-05-23T13:42:47.981Z,2.70
2018-05-23T13:45:14.610Z,2.80
2018-05-23T13:47:41.333Z,2.92
2018-05-23T13:50:07.958Z,2.40
2018-05-23T13:52:40.584Z,2.30
2018-05-23T13:55:07.226Z,2.95
2018-05-23T13:57:34.010Z,2.60
2018-05-23T14:00:00.837Z,2.47
2018-05-23T14:02:33.644Z,2.53
2018-05-23T14:05:00.320Z,2.30
2018-05-23T14:07:27.066Z,2.37
2018-05-23T14:09:53.722Z,2.30
2018-05-23T14:12:27.692Z,4.47
2018-05-23T14:14:54.388Z,2.60
2018-05-23T14:17:21.010Z,2.60
2018-05-23T14:19:47.717Z,3.83
2018-05-23T14:22:15.436Z,2.28
2018-05-23T14:24:42.435Z,2.55
2018-05-23T14:27:09.121Z,2.77
2018-05-23T14:29:35.833Z,2.83
2018-05-23T14:32:06.040Z,2.83
2018-05-23T14:34:32.551Z,2.55
2018-05-23T14:36:59.217Z,2.50
2018-05-23T14:39:25.771Z,2.57
2018-05-23T14:41:53.579Z,2.60
2018-05-23T14:44:20.374Z,3.17
2018-05-23T14:46:47.289Z,2.60
2018-05-23T14:49:13.999Z,2.28
2018-05-23T14:51:48.058Z,2.57
2018-05-23T14:54:14.724Z,2.30
2018-05-23T14:56:41.450Z,2.50
2018-05-23T14:59:08.390Z,2.30
2018-05-23T15:01:38.216Z,2.28
2018-05-23T15:04:05.088Z,2.70
2018-05-23T15:06:31.702Z,2.53
2018-05-23T15:08:58.377Z,2.70
2018-05-23T15:11:26.053Z,2.60
2018-05-23T15:13:52.691Z,2.50
2018-05-23T15:16:19.409Z,2.60
2018-05-23T15:18:46.122Z,2.77
2018-05-23T15:21:16.338Z,2.73
2018-05-23T15:23:43.010Z,2.97
2018-05-23T15:26:10.286Z,2.17
2018-05-23T15:28:36.936Z,3.00
2018-05-23T15:31:04.055Z,3.03
2018-05-23T15:33:30.882Z,2.80
2018-05-23T15:35:57.941Z,2.90
2018-05-23T15:38:24.494Z,3.17
2018-05-23T15:40:51.282Z,3.30
2018-05-23T15:43:18.108Z,2.53
2018-05-23T15:45:44.673Z,2.87
2018-05-23T15:48:11.306Z,3.43
2018-05-23T15:50:39.103Z,2.37
2018-05-23T15:53:05.794Z,2.37
2018-05-23T15:55:32.553Z,2.70
2018-05-23T15:57:59.938Z,2.63
2018-05-23T16:00:30.465Z,2.90
2018-05-23T16:02:57.228Z,2.90
2018-05-23T16:05:24.110Z,3.40
2018-05-23T16:07:50.786Z,3.30
2018-05-23T16:10:19.030Z,3.30
2018-05-23T16:12:45.615Z,3.30
2018-05-23T16:15:12.649Z,3.80
2018-05-23T16:17:39.332Z,3.60
2018-05-23T16:20:09.055Z,3.50
2018-05-23T16:22:35.625Z,3.40
2018-05-23T16:25:02.145Z,3.23
2018-05-23T16:27:28.807Z,3.30
2018-05-23T16:30:01.809Z,3.50
2018-05-23T16:32:28.410Z,3.97
2018-05-23T16:34:55.109Z,3.60
2018-05-23T16:37:22.073Z,3.90
2018-05-23T16:39:48.718Z,3.47
2018-05-23T16:42:15.705Z,4.63
2018-05-23T16:44:42.658Z,4.50
2018-05-23T16:47:09.209Z,4.25
2018-05-23T16:49:35.935Z,5.53
2018-05-23T16:52:03.716Z,3.80
2018-05-23T16:54:30.400Z,3.20
2018-05-23T16:56:57.049Z,3.20
2018-05-23T16:59:23.745Z,3.23
2018-05-23T17:01:55.420Z,3.30
2018-05-23T17:04:22.154Z,3.10
2018-05-23T17:06:48.785Z,2.97
2018-05-23T17:09:15.324Z,2.63
2018-05-23T17:11:45.475Z,3.40
2018-05-23T17:14:12.202Z,3.37
2018-05-23T17:16:38.722Z,3.20
2018-05-23T17:19:05.443Z,3.40
2018-05-23T17:21:35.906Z,3.47
2018-05-23T17:24:02.737Z,3.50
2018-05-23T17:26:29.694Z,4.10
2018-05-23T17:28:56.346Z,3.90
2018-05-23T17:31:23.031Z,3.50
2018-05-23T17:33:49.761Z,3.90
2018-05-23T17:36:16.450Z,4.10
2018-05-23T17:38:43.086Z,4.10
2018-05-23T17:41:10.906Z,4.20
2018-05-23T17:43:37.558Z,4.47
2018-05-23T17:46:04.227Z,4.37
2018-05-23T17:48:30.826Z,4.37
2018-05-23T17:51:00.896Z,4.37
2018-05-23T17:53:27.885Z,4.73
2018-05-23T17:55:54.566Z,4.27
2018-05-23T17:58:21.278Z,4.40
2018-05-23T18:00:49.207Z,4.50
2018-05-23T18:03:15.705Z,4.73
2018-05-23T18:05:42.376Z,6.10
2018-05-23T18:08:09.158Z,6.37
2018-05-23T18:10:39.318Z,6.57
2018-05-23T18:13:05.925Z,7.70
2018-05-23T18:15:32.953Z,6.50
2018-05-23T18:18:00.729Z,5.20
2018-05-23T18:20:28.655Z,5.23
2018-05-23T18:22:55.587Z,5.20
2018-05-23T18:25:22.539Z,5.60
2018-05-23T18:27:49.270Z,6.00
2018-05-23T18:30:15.790Z,6.10
2018-05-23T18:32:42.972Z,6.30
2018-05-23T18:35:09.476Z,5.90
2018-05-23T18:37:36.170Z,8.00
2018-05-23T18:40:06.760Z,8.43
2018-05-23T18:42:33.530Z,10.57
2018-05-23T18:45:00.289Z,8.97
2018-05-23T18:47:26.843Z,8.87
2018-05-23T18:49:56.756Z,7.60
2018-05-23T18:52:23.442Z,5.33
2018-05-23T18:54:50.114Z,6.30
2018-05-23T18:57:16.822Z,5.53
2018-05-23T18:59:44.741Z,5.60
2018-05-23T19:02:11.446Z,5.17
2018-05-23T19:04:38.097Z,5.43
2018-05-23T19:07:04.767Z,4.70
2018-05-23T19:09:31.555Z,5.10
2018-05-23T19:11:58.292Z,4.57
2018-05-23T19:14:25.010Z,5.00
2018-05-23T19:16:51.834Z,4.17
2018-05-23T19:19:18.488Z,4.97
2018-05-23T19:21:45.317Z,4.37
2018-05-23T19:24:11.951Z,4.40
2018-05-23T19:26:38.662Z,4.80
2018-05-23T19:29:05.315Z,5.20
2018-05-23T19:31:35.796Z,5.13
2018-05-23T19:34:02.752Z,4.67
2018-05-23T19:36:29.464Z,5.27
2018-05-23T19:38:56.286Z,5.37
2018-05-23T19:41:24.173Z,5.10
2018-05-23T19:43:50.857Z,5.30
2018-05-23T19:46:17.697Z,5.53
2018-05-23T19:48:44.897Z,5.30
2018-05-23T19:51:15.616Z,5.37
2018-05-23T19:53:42.357Z,5.80
2018-05-23T19:56:09.633Z,5.60
2018-05-23T19:58:36.236Z,5.53
2018-05-23T20:01:06.972Z,5.97
2018-05-23T20:03:33.838Z,5.73
2018-05-23T20:06:00.548Z,6.13
2018-05-23T20:08:27.275Z,5.70
2018-05-23T20:10:55.982Z,5.17
2018-05-23T20:13:22.646Z,6.10
2018-05-23T20:15:50.090Z,6.47
2018-05-23T20:18:17.167Z,7.00
2018-05-23T20:20:43.981Z,6.87
2018-05-23T20:23:17.426Z,6.50
2018-05-23T20:25:50.297Z,5.80
2018-05-23T20:28:23.554Z,5.53
2018-05-23T20:30:59.855Z,5.50
2018-05-23T20:33:33.316Z,5.57
2018-05-23T20:36:06.575Z,5.57
2018-05-23T20:38:39.461Z,6.00
2018-05-23T20:41:14.817Z,5.77
2018-05-23T20:43:48.482Z,5.10
2018-05-23T20:46:21.226Z,5.60
2018-05-23T20:48:54.466Z,5.17
2018-05-23T20:51:31.154Z,5.80
2018-05-23T20:54:03.833Z,5.43
2018-05-23T20:56:37.443Z,5.27
2018-05-23T20:59:10.804Z,5.30
2018-05-23T21:01:44.238Z,5.40
2018-05-23T21:04:17.742Z,5.90
2018-05-23T21:06:51.059Z,5.50
2018-05-23T21:09:28.325Z,5.70
2018-05-23T21:12:02.002Z,5.60
2018-05-23T21:14:34.967Z,6.47
2018-05-23T21:17:08.430Z,5.87
2018-05-23T21:19:44.802Z,6.40
2018-05-23T21:22:17.918Z,6.43
2018-05-23T21:24:52.505Z,6.10
2018-05-23T21:27:25.806Z,5.83
2018-05-23T21:30:06.597Z,6.33
2018-05-23T21:32:39.831Z,6.10
2018-05-23T21:35:13.421Z,6.03
2018-05-23T21:37:46.311Z,5.57
2018-05-23T21:40:20.756Z,5.87
2018-05-23T21:42:54.167Z,5.80
2018-05-23T21:45:27.132Z,5.80
2018-05-23T21:48:00.157Z,5.53
2018-05-23T21:50:33.410Z,6.60
2018-05-23T21:53:06.238Z,6.93
2018-05-23T21:55:40.013Z,5.57
2018-05-23T21:58:12.626Z,6.23
2018-05-23T22:00:46.257Z,6.37
2018-05-23T22:03:19.644Z,5.83
2018-05-23T22:05:53.597Z,5.57
2018-05-23T22:08:26.825Z,5.60
2018-05-23T22:11:00.408Z,5.40
2018-05-23T22:13:33.054Z,5.90
2018-05-23T22:16:06.414Z,5.30
2018-05-23T22:18:39.862Z,5.80
2018-05-23T22:21:12.761Z,6.00
2018-05-23T22:23:45.972Z,6.10
2018-05-23T22:26:19.478Z,5.67
2018-05-23T22:28:52.157Z,5.30
2018-05-23T22:31:24.839Z,5.60
2018-05-23T22:33:57.456Z,5.60
2018-05-23T22:36:30.994Z,6.20
2018-05-23T22:39:04.572Z,6.43
2018-05-23T22:41:38.570Z,6.20
2018-05-23T22:44:11.350Z,6.47
2018-05-23T22:46:44.859Z,5.83
2018-05-23T22:49:21.904Z,6.20
2018-05-23T22:51:54.969Z,6.17
2018-05-23T22:54:28.318Z,5.73
2018-05-23T22:57:02.332Z,5.77
2018-05-23T22:59:36.196Z,5.40
2018-05-23T23:02:09.063Z,5.23
2018-05-23T23:04:42.306Z,4.83
2018-05-23T23:07:15.458Z,5.00
2018-05-23T23:09:48.898Z,5.13
2018-05-23T23:12:21.596Z,4.93
2018-05-23T23:14:54.405Z,5.50
2018-05-23T23:17:28.220Z,5.77
2018-05-23T23:20:02.503Z,6.57
2018-05-23T23:22:38.037Z,6.53
2018-05-23T23:25:11.497Z,7.83
2018-05-23T23:27:44.933Z,6.40
2018-05-23T23:30:21.404Z,6.17
2018-05-23T23:32:54.683Z,7.57
2018-05-23T23:35:28.911Z,6.00
2018-05-23T23:38:02.374Z,5.20
2018-05-23T23:40:35.692Z,4.93
2018-05-23T23:43:08.736Z,5.43
2018-05-23T23:45:42.338Z,4.90
2018-05-23T23:48:15.877Z,5.20
2018-05-23T23:50:49.357Z,5.43
2018-05-23T23:53:22.113Z,5.60
2018-05-23T23:55:55.026Z,5.10
2018-05-23T23:58:28.656Z,4.70
